sensor_id;sensor_type;location;lat;lon;timestamp;P1;durP1;ratioP1;P2;durP2;ratioP2
4961;SDS011;2496;52.468;13.342;2024-01-15T00:00:21;16.20;;;8.67;;
4961;SDS011;2496;52.468;13.342;2024-01-15T00:02:49;12.97;;;8.27;;
4961;SDS011;2496;52.468;13.342;2024-01-15T00:05:16;16.13;;;9.10;;
4961;SDS011;2496;52.468;13.342;2024-01-15T00:07:43;14.70;;;9.23;;
4961;SDS011;2496;52.468;13.342;2024-01-15T00:10:10;15.30;;;9.90;;
4961;SDS011;2496;52.468;13.342;2024-01-15T00:12:37;14.60;;;8.70;;
4961;SDS011;2496;52.468;13.342;2024-01-15T00:15:04;14.60;;;9.30;;
4961;SDS011;2496;52.468;13.342;2024-01-15T00:17:33;14.33;;;10.50;;
4961;SDS011;2496;52.468;13.342;2024-01-15T00:20:03;12.67;;;8.13;;
4961;SDS011;2496;52.468;13.342;2024-01-15T00:22:31;13.70;;;8.50;;
4961;SDS011;2496;52.468;13.342;2024-01-15T00:24:58;15.90;;;8.80;;
4961;SDS011;2496;52.468;13.342;2024-01-15T00:27:26;13.67;;;9.13;;
4961;SDS011;2496;52.468;13.342;2024-01-15T00:29:55;15.13;;;9.73;;
4961;SDS011;2496;52.468;13.342;2024-01-15T00:32:22;15.47;;;9.30;;
4961;SDS011;2496;52.468;13.342;2024-01-15T00:34:49;15.30;;;9.47;;
4961;SDS011;2496;52.468;13.342;2024-01-15T00:37:19;15.93;;;9.40;;
4961;SDS011;2496;52.468;13.342;2024-01-15T00:39:46;15.67;;;7.80;;
4961;SDS011;2496;52.468;13.342;2024-01-15T00:42:15;17.73;;;10.00;;
4961;SDS011;2496;52.468;13.342;2024-01-15T00:44:42;15.63;;;9.60;;
4961;SDS011;2496;52.468;13.342;2024-01-15T00:47:08;12.80;;;8.70;;
4961;SDS011;2496;52.468;13.342;2024-01-15T00:49:35;14.47;;;9.50;;
4961;SDS011;2496;52.468;13.342;2024-01-15T00:52:02;17.50;;;9.70;;
4961;SDS011;2496;52.468;13.342;2024-01-15T00:54:31;14.27;;;7.87;;
4961;SDS011;2496;52.468;13.342;2024-01-15T00:56:58;16.20;;;8.97;;
4961;SDS011;2496;52.468;13.342;2024-01-15T00:59:27;14.80;;;8.97;;
4961;SDS011;2496;52.468;13.342;2024-01-15T01:01:54;13.03;;;8.47;;
4961;SDS011;2496;52.468;13.342;2024-01-15T01:04:21;12.47;;;8.60;;
4961;SDS011;2496;52.468;13.342;2024-01-15T01:06:48;15.93;;;8.67;;
4961;SDS011;2496;52.468;13.342;2024-01-15T01:09:15;16.60;;;8.87;;
4961;SDS011;2496;52.468;13.342;2024-01-15T01:11:43;15.13;;;7.83;;
4961;SDS011;2496;52.468;13.342;2024-01-15T01:14:10;13.90;;;8.40;;
4961;SDS011;2496;52.468;13.342;2024-01-15T01:16:37;14.40;;;8.33;;
4961;SDS011;2496;52.468;13.342;2024-01-15T01:19:04;14.40;;;9.53;;
4961;SDS011;2496;52.468;13.342;2024-01-15T01:21:32;16.47;;;8.90;;
4961;SDS011;2496;52.468;13.342;2024-01-15T01:23:59;15.70;;;9.63;;
4961;SDS011;2496;52.468;13.342;2024-01-15T01:26:26;18.97;;;9.70;;
4961;SDS011;2496;52.468;13.342;2024-01-15T01:28:54;16.20;;;8.67;;
4961;SDS011;2496;52.468;13.342;2024-01-15T01:31:21;14.43;;;8.77;;
4961;SDS011;2496;52.468;13.342;2024-01-15T01:33:49;15.17;;;9.17;;
4961;SDS011;2496;52.468;13.342;2024-01-15T01:36:16;16.63;;;8.30;;
4961;SDS011;2496;52.468;13.342;2024-01-15T01:38:43;18.67;;;9.10;;
4961;SDS011;2496;52.468;13.342;2024-01-15T01:41:09;13.23;;;7.87;;
4961;SDS011;2496;52.468;13.342;2024-01-15T01:43:37;15.50;;;10.07;;
4961;SDS011;2496;52.468;13.342;2024-01-15T01:46:05;17.57;;;9.60;;
4961;SDS011;2496;52.468;13.342;2024-01-15T01:48:32;22.43;;;10.40;;
4961;SDS011;2496;52.468;13.342;2024-01-15T01:51:02;16.10;;;9.03;;
4961;SDS011;2496;52.468;13.342;2024-01-15T01:53:30;16.30;;;9.27;;
4961;SDS011;2496;52.468;13.342;2024-01-15T01:56:00;16.17;;;10.60;;
4961;SDS011;2496;52.468;13.342;2024-01-15T01:58:28;15.03;;;9.97;;
4961;SDS011;2496;52.468;13.342;2024-01-15T02:00:56;14.83;;;9.03;;
4961;SDS011;2496;52.468;13.342;2024-01-15T02:03:25;16.33;;;9.67;;
4961;SDS011;2496;52.468;13.342;2024-01-15T02:05:53;16.23;;;9.20;;
4961;SDS011;2496;52.468;13.342;2024-01-15T02:08:20;22.03;;;9.83;;
4961;SDS011;2496;52.468;13.342;2024-01-15T02:10:48;13.50;;;7.87;;
4961;SDS011;2496;52.468;13.342;2024-01-15T02:13:15;15.60;;;9.13;;
4961;SDS011;2496;52.468;13.342;2024-01-15T02:15:42;16.37;;;9.20;;
4961;SDS011;2496;52.468;13.342;2024-01-15T02:18:09;15.37;;;9.10;;
4961;SDS011;2496;52.468;13.342;2024-01-15T02:20:37;17.40;;;9.37;;
4961;SDS011;2496;52.468;13.342;2024-01-15T02:23:08;14.30;;;9.37;;
4961;SDS011;2496;52.468;13.342;2024-01-15T02:25:37;14.20;;;8.67;;
4961;SDS011;2496;52.468;13.342;2024-01-15T02:28:04;16.23;;;9.57;;
4961;SDS011;2496;52.468;13.342;2024-01-15T02:30:32;15.50;;;8.30;;
4961;SDS011;2496;52.468;13.342;2024-01-15T02:33:03;12.70;;;7.70;;
4961;SDS011;2496;52.468;13.342;2024-01-15T02:35:30;12.67;;;7.27;;
4961;SDS011;2496;52.468;13.342;2024-01-15T02:37:58;11.23;;;6.83;;
4961;SDS011;2496;52.468;13.342;2024-01-15T02:40:26;10.93;;;6.87;;
4961;SDS011;2496;52.468;13.342;2024-01-15T02:42:53;9.83;;;7.33;;
4961;SDS011;2496;52.468;13.342;2024-01-15T02:45:21;12.83;;;7.53;;
4961;SDS011;2496;52.468;13.342;2024-01-15T02:47:48;15.53;;;6.93;;
4961;SDS011;2496;52.468;13.342;2024-01-15T02:50:15;9.97;;;5.87;;
4961;SDS011;2496;52.468;13.342;2024-01-15T02:52:42;15.57;;;7.27;;
4961;SDS011;2496;52.468;13.342;2024-01-15T02:55:09;13.57;;;7.00;;
4961;SDS011;2496;52.468;13.342;2024-01-15T02:57:38;12.20;;;7.73;;
4961;SDS011;2496;52.468;13.342;2024-01-15T03:00:05;13.67;;;7.47;;
4961;SDS011;2496;52.468;13.342;2024-01-15T03:02:35;15.10;;;8.33;;
4961;SDS011;2496;52.468;13.342;2024-01-15T03:05:04;14.23;;;7.20;;
4961;SDS011;2496;52.468;13.342;2024-01-15T03:07:31;14.23;;;8.20;;
4961;SDS011;2496;52.468;13.342;2024-01-15T03:09:58;13.07;;;7.33;;
4961;SDS011;2496;52.468;13.342;2024-01-15T03:12:25;10.20;;;7.10;;
4961;SDS011;2496;52.468;13.342;2024-01-15T03:14:54;14.03;;;8.90;;
4961;SDS011;2496;52.468;13.342;2024-01-15T03:17:21;12.90;;;7.70;;
4961;SDS011;2496;52.468;13.342;2024-01-15T03:19:48;12.70;;;7.17;;
4961;SDS011;2496;52.468;13.342;2024-01-15T03:22:15;10.33;;;6.17;;
4961;SDS011;2496;52.468;13.342;2024-01-15T03:24:42;12.80;;;7.60;;
4961;SDS011;2496;52.468;13.342;2024-01-15T03:27:09;18.07;;;7.20;;
4961;SDS011;2496;52.468;13.342;2024-01-15T03:29:37;9.30;;;5.97;;
4961;SDS011;2496;52.468;13.342;2024-01-15T03:32:05;13.60;;;6.30;;
4961;SDS011;2496;52.468;13.342;2024-01-15T03:34:32;10.80;;;6.03;;
4961;SDS011;2496;52.468;13.342;2024-01-15T03:36:59;13.40;;;6.10;;
4961;SDS011;2496;52.468;13.342;2024-01-15T03:39:26;12.00;;;5.37;;
4961;SDS011;2496;52.468;13.342;2024-01-15T03:41:53;9.50;;;5.70;;
4961;SDS011;2496;52.468;13.342;2024-01-15T03:44:20;12.63;;;6.67;;
4961;SDS011;2496;52.468;13.342;2024-01-15T03:46:47;10.80;;;5.50;;
4961;SDS011;2496;52.468;13.342;2024-01-15T03:49:15;10.30;;;5.40;;
4961;SDS011;2496;52.468;13.342;2024-01-15T03:51:42;11.50;;;4.70;;
4961;SDS011;2496;52.468;13.342;2024-01-15T03:54:12;21.37;;;6.83;;
4961;SDS011;2496;52.468;13.342;2024-01-15T03:56:39;11.93;;;5.83;;
4961;SDS011;2496;52.468;13.342;2024-01-15T03:59:06;7.47;;;5.00;;
4961;SDS011;2496;52.468;13.342;2024-01-15T04:01:33;9.67;;;4.63;;
4961;SDS011;2496;52.468;13.342;2024-01-15T04:04:00;10.10;;;6.17;;
4961;SDS011;2496;52.468;13.342;2024-01-15T04:06:29;7.70;;;5.20;;
4961;SDS011;2496;52.468;13.342;2024-01-15T04:08:55;13.70;;;6.23;;
4961;SDS011;2496;52.468;13.342;2024-01-15T04:11:22;9.97;;;5.37;;
4961;SDS011;2496;52.468;13.342;2024-01-15T04:13:49;6.67;;;4.80;;
4961;SDS011;2496;52.468;13.342;2024-01-15T04:16:16;12.73;;;5.63;;
4961;SDS011;2496;52.468;13.342;2024-01-15T04:18:44;15.13;;;6.63;;
4961;SDS011;2496;52.468;13.342;2024-01-15T04:21:11;10.73;;;4.87;;
4961;SDS011;2496;52.468;13.342;2024-01-15T04:23:40;13.20;;;5.30;;
4961;SDS011;2496;52.468;13.342;2024-01-15T04:26:08;9.97;;;4.50;;
4961;SDS011;2496;52.468;13.342;2024-01-15T04:28:35;8.40;;;4.20;;
4961;SDS011;2496;52.468;13.342;2024-01-15T04:31:02;12.23;;;5.13;;
4961;SDS011;2496;52.468;13.342;2024-01-15T04:33:29;18.67;;;5.10;;
4961;SDS011;2496;52.468;13.342;2024-01-15T04:35:56;10.73;;;4.17;;
4961;SDS011;2496;52.468;13.342;2024-01-15T04:38:27;8.77;;;4.43;;
4961;SDS011;2496;52.468;13.342;2024-01-15T04:40:56;8.17;;;4.47;;
4961;SDS011;2496;52.468;13.342;2024-01-15T04:43:23;9.33;;;4.90;;
4961;SDS011;2496;52.468;13.342;2024-01-15T04:45:50;6.97;;;3.50;;
4961;SDS011;2496;52.468;13.342;2024-01-15T04:48:17;6.63;;;4.40;;
4961;SDS011;2496;52.468;13.342;2024-01-15T04:50:44;9.80;;;4.07;;
4961;SDS011;2496;52.468;13.342;2024-01-15T04:53:11;5.93;;;3.57;;
4961;SDS011;2496;52.468;13.342;2024-01-15T04:55:38;6.87;;;3.90;;
4961;SDS011;2496;52.468;13.342;2024-01-15T04:58:06;6.83;;;3.50;;
4961;SDS011;2496;52.468;13.342;2024-01-15T05:00:33;9.17;;;2.97;;
4961;SDS011;2496;52.468;13.342;2024-01-15T05:03:00;7.57;;;3.80;;
4961;SDS011;2496;52.468;13.342;2024-01-15T05:05:28;7.70;;;3.10;;
4961;SDS011;2496;52.468;13.342;2024-01-15T05:07:55;7.60;;;3.53;;
4961;SDS011;2496;52.468;13.342;2024-01-15T05:10:22;8.80;;;3.00;;
4961;SDS011;2496;52.468;13.342;2024-01-15T05:12:49;7.00;;;3.37;;
4961;SDS011;2496;52.468;13.342;2024-01-15T05:15:17;7.10;;;3.03;;
4961;SDS011;2496;52.468;13.342;2024-01-15T05:17:44;7.30;;;2.80;;
4961;SDS011;2496;52.468;13.342;2024-01-15T05:20:11;7.93;;;2.93;;
4961;SDS011;2496;52.468;13.342;2024-01-15T05:22:38;12.40;;;3.50;;
4961;SDS011;2496;52.468;13.342;2024-01-15T05:25:06;5.70;;;3.10;;
4961;SDS011;2496;52.468;13.342;2024-01-15T05:27:33;7.70;;;2.90;;
4961;SDS011;2496;52.468;13.342;2024-01-15T05:30:00;6.13;;;3.07;;
4961;SDS011;2496;52.468;13.342;2024-01-15T05:32:28;4.20;;;2.60;;
4961;SDS011;2496;52.468;13.342;2024-01-15T05:34:55;10.03;;;3.43;;
4961;SDS011;2496;52.468;13.342;2024-01-15T05:37:22;12.70;;;3.60;;
4961;SDS011;2496;52.468;13.342;2024-01-15T05:39:49;6.33;;;3.00;;
4961;SDS011;2496;52.468;13.342;2024-01-15T05:42:16;9.63;;;3.17;;
4961;SDS011;2496;52.468;13.342;2024-01-15T05:44:43;6.30;;;3.70;;
4961;SDS011;2496;52.468;13.342;2024-01-15T05:47:10;10.90;;;3.00;;
4961;SDS011;2496;52.468;13.342;2024-01-15T05:49:38;6.13;;;2.80;;
4961;SDS011;2496;52.468;13.342;2024-01-15T05:52:06;8.30;;;2.83;;
4961;SDS011;2496;52.468;13.342;2024-01-15T05:54:33;11.50;;;2.83;;
4961;SDS011;2496;52.468;13.342;2024-01-15T05:57:00;12.90;;;2.77;;
4961;SDS011;2496;52.468;13.342;2024-01-15T05:59:27;3.33;;;2.40;;
4961;SDS011;2496;52.468;13.342;2024-01-15T06:01:56;6.70;;;3.50;;
4961;SDS011;2496;52.468;13.342;2024-01-15T06:04:24;14.97;;;2.60;;
4961;SDS011;2496;52.468;13.342;2024-01-15T06:06:52;5.20;;;2.30;;
4961;SDS011;2496;52.468;13.342;2024-01-15T06:09:19;15.57;;;3.77;;
4961;SDS011;2496;52.468;13.342;2024-01-15T06:11:46;6.33;;;2.30;;
4961;SDS011;2496;52.468;13.342;2024-01-15T06:14:13;6.23;;;3.37;;
4961;SDS011;2496;52.468;13.342;2024-01-15T06:16:40;7.90;;;2.43;;
4961;SDS011;2496;52.468;13.342;2024-01-15T06:19:07;7.97;;;2.97;;
4961;SDS011;2496;52.468;13.342;2024-01-15T06:21:34;10.40;;;2.50;;
4961;SDS011;2496;52.468;13.342;2024-01-15T06:24:02;16.93;;;3.73;;
4961;SDS011;2496;52.468;13.342;2024-01-15T06:26:30;4.60;;;2.17;;
4961;SDS011;2496;52.468;13.342;2024-01-15T06:28:57;6.30;;;2.13;;
4961;SDS011;2496;52.468;13.342;2024-01-15T06:31:23;8.77;;;2.50;;
4961;SDS011;2496;52.468;13.342;2024-01-15T06:33:50;7.33;;;2.17;;
4961;SDS011;2496;52.468;13.342;2024-01-15T06:36:17;5.03;;;2.37;;
4961;SDS011;2496;52.468;13.342;2024-01-15T06:38:44;10.70;;;2.67;;
4961;SDS011;2496;52.468;13.342;2024-01-15T06:41:13;10.33;;;2.67;;
4961;SDS011;2496;52.468;13.342;2024-01-15T06:43:40;5.43;;;2.60;;
4961;SDS011;2496;52.468;13.342;2024-01-15T06:46:07;18.80;;;3.03;;
4961;SDS011;2496;52.468;13.342;2024-01-15T06:48:34;8.17;;;2.70;;
4961;SDS011;2496;52.468;13.342;2024-01-15T06:51:01;7.67;;;2.83;;
4961;SDS011;2496;52.468;13.342;2024-01-15T06:53:28;7.90;;;2.50;;
4961;SDS011;2496;52.468;13.342;2024-01-15T06:55:55;6.30;;;2.70;;
4961;SDS011;2496;52.468;13.342;2024-01-15T06:58:24;8.77;;;2.60;;
4961;SDS011;2496;52.468;13.342;2024-01-15T07:00:51;6.63;;;2.60;;
4961;SDS011;2496;52.468;13.342;2024-01-15T07:03:18;9.43;;;2.33;;
4961;SDS011;2496;52.468;13.342;2024-01-15T07:05:45;12.83;;;2.20;;
4961;SDS011;2496;52.468;13.342;2024-01-15T07:08:12;4.23;;;2.00;;
4961;SDS011;2496;52.468;13.342;2024-01-15T07:10:39;10.17;;;2.07;;
4961;SDS011;2496;52.468;13.342;2024-01-15T07:13:06;9.53;;;2.20;;
4961;SDS011;2496;52.468;13.342;2024-01-15T07:15:35;4.63;;;2.20;;
4961;SDS011;2496;52.468;13.342;2024-01-15T07:18:02;4.90;;;1.73;;
4961;SDS011;2496;52.468;13.342;2024-01-15T07:20:30;13.13;;;2.67;;
4961;SDS011;2496;52.468;13.342;2024-01-15T07:22:58;12.50;;;3.47;;
4961;SDS011;2496;52.468;13.342;2024-01-15T07:25:24;7.43;;;2.10;;
4961;SDS011;2496;52.468;13.342;2024-01-15T07:27:52;4.53;;;2.03;;
4961;SDS011;2496;52.468;13.342;2024-01-15T07:30:19;11.93;;;2.20;;
4961;SDS011;2496;52.468;13.342;2024-01-15T07:32:48;7.87;;;2.00;;
4961;SDS011;2496;52.468;13.342;2024-01-15T07:35:15;4.43;;;2.20;;
4961;SDS011;2496;52.468;13.342;2024-01-15T07:37:42;11.47;;;2.10;;
4961;SDS011;2496;52.468;13.342;2024-01-15T07:40:09;11.43;;;2.10;;
4961;SDS011;2496;52.468;13.342;2024-01-15T07:42:37;9.50;;;2.43;;
4961;SDS011;2496;52.468;13.342;2024-01-15T07:45:04;9.97;;;2.47;;
4961;SDS011;2496;52.468;13.342;2024-01-15T07:47:32;13.67;;;2.90;;
4961;SDS011;2496;52.468;13.342;2024-01-15T07:50:00;6.57;;;2.20;;
4961;SDS011;2496;52.468;13.342;2024-01-15T07:52:27;12.00;;;2.13;;
4961;SDS011;2496;52.468;13.342;2024-01-15T07:54:54;8.27;;;2.33;;
4961;SDS011;2496;52.468;13.342;2024-01-15T07:57:21;8.10;;;2.03;;
4961;SDS011;2496;52.468;13.342;2024-01-15T07:59:48;10.17;;;2.20;;
4961;SDS011;2496;52.468;13.342;2024-01-15T08:02:16;7.10;;;2.63;;
4961;SDS011;2496;52.468;13.342;2024-01-15T08:04:43;14.00;;;2.83;;
4961;SDS011;2496;52.468;13.342;2024-01-15T08:07:13;8.00;;;2.10;;
4961;SDS011;2496;52.468;13.342;2024-01-15T08:09:40;9.70;;;2.73;;
4961;SDS011;2496;52.468;13.342;2024-01-15T08:12:08;12.77;;;2.50;;
4961;SDS011;2496;52.468;13.342;2024-01-15T08:14:35;7.00;;;2.23;;
4961;SDS011;2496;52.468;13.342;2024-01-15T08:17:02;15.20;;;2.57;;
4961;SDS011;2496;52.468;13.342;2024-01-15T08:19:29;5.17;;;2.00;;
4961;SDS011;2496;52.468;13.342;2024-01-15T08:21:56;4.97;;;1.80;;
4961;SDS011;2496;52.468;13.342;2024-01-15T08:24:25;9.43;;;2.20;;
4961;SDS011;2496;52.468;13.342;2024-01-15T08:26:51;11.27;;;2.83;;
4961;SDS011;2496;52.468;13.342;2024-01-15T08:29:18;15.50;;;2.20;;
4961;SDS011;2496;52.468;13.342;2024-01-15T08:31:46;8.63;;;2.10;;
4961;SDS011;2496;52.468;13.342;2024-01-15T08:34:13;4.63;;;2.80;;
4961;SDS011;2496;52.468;13.342;2024-01-15T08:36:40;8.33;;;2.30;;
4961;SDS011;2496;52.468;13.342;2024-01-15T08:39:07;8.40;;;2.13;;
4961;SDS011;2496;52.468;13.342;2024-01-15T08:41:35;7.10;;;2.03;;
4961;SDS011;2496;52.468;13.342;2024-01-15T08:44:03;11.20;;;2.50;;
4961;SDS011;2496;52.468;13.342;2024-01-15T08:46:30;13.83;;;3.37;;
4961;SDS011;2496;52.468;13.342;2024-01-15T08:48:57;11.00;;;2.10;;
4961;SDS011;2496;52.468;13.342;2024-01-15T08:51:24;21.73;;;2.33;;
4961;SDS011;2496;52.468;13.342;2024-01-15T08:53:51;7.13;;;3.00;;
4961;SDS011;2496;52.468;13.342;2024-01-15T08:56:17;8.13;;;2.40;;
4961;SDS011;2496;52.468;13.342;2024-01-15T08:58:46;4.63;;;1.93;;
4961;SDS011;2496;52.468;13.342;2024-01-15T09:01:13;8.83;;;2.00;;
4961;SDS011;2496;52.468;13.342;2024-01-15T09:03:40;11.40;;;2.70;;
4961;SDS011;2496;52.468;13.342;2024-01-15T09:06:07;6.40;;;2.10;;
4961;SDS011;2496;52.468;13.342;2024-01-15T09:08:35;5.63;;;2.50;;
4961;SDS011;2496;52.468;13.342;2024-01-15T09:11:02;12.93;;;2.17;;
4961;SDS011;2496;52.468;13.342;2024-01-15T09:13:29;8.07;;;2.63;;
4961;SDS011;2496;52.468;13.342;2024-01-15T09:18:27;11.90;;;2.57;;
4961;SDS011;2496;52.468;13.342;2024-01-15T09:20:54;10.43;;;2.00;;
4961;SDS011;2496;52.468;13.342;2024-01-15T09:23:21;11.10;;;2.10;;
4961;SDS011;2496;52.468;13.342;2024-01-15T09:25:48;5.00;;;1.93;;
4961;SDS011;2496;52.468;13.342;2024-01-15T09:28:17;8.63;;;1.97;;
4961;SDS011;2496;52.468;13.342;2024-01-15T09:30:44;14.03;;;2.03;;
4961;SDS011;2496;52.468;13.342;2024-01-15T09:33:13;12.03;;;3.40;;
4961;SDS011;2496;52.468;13.342;2024-01-15T09:35:40;7.13;;;2.60;;
4961;SDS011;2496;52.468;13.342;2024-01-15T09:38:07;6.90;;;2.23;;
4961;SDS011;2496;52.468;13.342;2024-01-15T09:40:34;8.27;;;2.30;;
4961;SDS011;2496;52.468;13.342;2024-01-15T09:43:06;15.80;;;2.13;;
4961;SDS011;2496;52.468;13.342;2024-01-15T09:45:33;6.70;;;2.10;;
4961;SDS011;2496;52.468;13.342;2024-01-15T09:48:00;5.93;;;1.97;;
4961;SDS011;2496;52.468;13.342;2024-01-15T09:50:29;9.20;;;2.70;;
4961;SDS011;2496;52.468;13.342;2024-01-15T09:52:56;6.70;;;1.80;;
4961;SDS011;2496;52.468;13.342;2024-01-15T09:55:24;5.67;;;1.60;;
4961;SDS011;2496;52.468;13.342;2024-01-15T09:57:51;12.63;;;2.80;;
4961;SDS011;2496;52.468;13.342;2024-01-15T10:00:21;3.47;;;1.80;;
4961;SDS011;2496;52.468;13.342;2024-01-15T10:02:49;4.50;;;2.40;;
4961;SDS011;2496;52.468;13.342;2024-01-15T10:05:16;6.27;;;1.87;;
4961;SDS011;2496;52.468;13.342;2024-01-15T10:07:45;6.90;;;2.37;;
4961;SDS011;2496;52.468;13.342;2024-01-15T10:10:15;5.73;;;2.10;;
4961;SDS011;2496;52.468;13.342;2024-01-15T10:12:42;8.90;;;2.00;;
4961;SDS011;2496;52.468;13.342;2024-01-15T10:15:09;9.60;;;2.60;;
4961;SDS011;2496;52.468;13.342;2024-01-15T10:17:37;8.60;;;2.00;;
4961;SDS011;2496;52.468;13.342;2024-01-15T10:20:07;8.87;;;2.10;;
4961;SDS011;2496;52.468;13.342;2024-01-15T10:22:35;3.43;;;2.10;;
4961;SDS011;2496;52.468;13.342;2024-01-15T10:25:07;5.23;;;1.63;;
4961;SDS011;2496;52.468;13.342;2024-01-15T10:27:36;4.90;;;2.67;;
4961;SDS011;2496;52.468;13.342;2024-01-15T10:30:04;7.40;;;2.40;;
4961;SDS011;2496;52.468;13.342;2024-01-15T10:32:31;3.30;;;2.10;;
4961;SDS011;2496;52.468;13.342;2024-01-15T10:34:59;3.67;;;2.17;;
4961;SDS011;2496;52.468;13.342;2024-01-15T10:37:26;11.80;;;5.27;;
4961;SDS011;2496;52.468;13.342;2024-01-15T10:39:53;5.40;;;2.30;;
4961;SDS011;2496;52.468;13.342;2024-01-15T10:42:21;4.60;;;1.70;;
4961;SDS011;2496;52.468;13.342;2024-01-15T10:44:48;9.90;;;2.00;;
4961;SDS011;2496;52.468;13.342;2024-01-15T10:47:15;7.87;;;2.00;;
4961;SDS011;2496;52.468;13.342;2024-01-15T10:49:43;3.63;;;1.87;;
4961;SDS011;2496;52.468;13.342;2024-01-15T10:52:11;6.00;;;2.23;;
4961;SDS011;2496;52.468;13.342;2024-01-15T10:54:38;5.27;;;2.10;;
4961;SDS011;2496;52.468;13.342;2024-01-15T10:57:05;5.40;;;1.60;;
4961;SDS011;2496;52.468;13.342;2024-01-15T10:59:34;5.33;;;2.67;;
4961;SDS011;2496;52.468;13.342;2024-01-15T11:02:02;4.73;;;1.50;;
4961;SDS011;2496;52.468;13.342;2024-01-15T11:04:31;16.20;;;4.10;;
4961;SDS011;2496;52.468;13.342;2024-01-15T11:06:58;3.83;;;1.80;;
4961;SDS011;2496;52.468;13.342;2024-01-15T11:09:28;4.97;;;1.97;;
4961;SDS011;2496;52.468;13.342;2024-01-15T11:12:06;6.63;;;1.70;;
4961;SDS011;2496;52.468;13.342;2024-01-15T11:14:35;7.17;;;2.90;;
4961;SDS011;2496;52.468;13.342;2024-01-15T11:17:05;7.20;;;1.53;;
4961;SDS011;2496;52.468;13.342;2024-01-15T11:19:35;3.13;;;1.30;;
4961;SDS011;2496;52.468;13.342;2024-01-15T11:22:05;1.73;;;1.30;;
4961;SDS011;2496;52.468;13.342;2024-01-15T11:24:34;2.87;;;1.80;;
4961;SDS011;2496;52.468;13.342;2024-01-15T11:27:02;2.93;;;1.30;;
4961;SDS011;2496;52.468;13.342;2024-01-15T11:29:30;4.90;;;1.50;;
4961;SDS011;2496;52.468;13.342;2024-01-15T11:32:01;7.03;;;1.83;;
4961;SDS011;2496;52.468;13.342;2024-01-15T11:37:17;4.33;;;2.27;;
4961;SDS011;2496;52.468;13.342;2024-01-15T11:39:44;10.77;;;1.73;;
4961;SDS011;2496;52.468;13.342;2024-01-15T11:42:12;4.07;;;1.97;;
4961;SDS011;2496;52.468;13.342;2024-01-15T11:44:40;4.80;;;2.17;;
4961;SDS011;2496;52.468;13.342;2024-01-15T11:47:09;3.17;;;1.70;;
4961;SDS011;2496;52.468;13.342;2024-01-15T11:49:53;6.07;;;3.40;;
4961;SDS011;2496;52.468;13.342;2024-01-15T11:52:32;4.67;;;2.00;;
4961;SDS011;2496;52.468;13.342;2024-01-15T11:55:12;4.37;;;2.13;;
4961;SDS011;2496;52.468;13.342;2024-01-15T11:57:45;5.90;;;2.23;;
4961;SDS011;2496;52.468;13.342;2024-01-15T12:00:15;4.50;;;1.73;;
4961;SDS011;2496;52.468;13.342;2024-01-15T12:02:44;3.87;;;2.53;;
4961;SDS011;2496;52.468;13.342;2024-01-15T12:05:13;2.57;;;2.10;;
4961;SDS011;2496;52.468;13.342;2024-01-15T12:07:41;2.23;;;2.03;;
4961;SDS011;2496;52.468;13.342;2024-01-15T12:10:08;2.63;;;2.40;;
4961;SDS011;2496;52.468;13.342;2024-01-15T12:12:44;6.13;;;3.20;;
4961;SDS011;2496;52.468;13.342;2024-01-15T12:15:23;2.87;;;2.33;;
4961;SDS011;2496;52.468;13.342;2024-01-15T12:17:52;3.03;;;2.10;;
4961;SDS011;2496;52.468;13.342;2024-01-15T12:20:20;2.90;;;1.83;;
4961;SDS011;2496;52.468;13.342;2024-01-15T12:22:47;3.20;;;1.93;;
4961;SDS011;2496;52.468;13.342;2024-01-15T12:25:15;4.50;;;2.37;;
4961;SDS011;2496;52.468;13.342;2024-01-15T12:27:42;2.03;;;1.83;;
4961;SDS011;2496;52.468;13.342;2024-01-15T12:30:10;2.50;;;1.83;;
4961;SDS011;2496;52.468;13.342;2024-01-15T12:32:39;2.23;;;2.03;;
4961;SDS011;2496;52.468;13.342;2024-01-15T12:35:08;2.90;;;2.07;;
4961;SDS011;2496;52.468;13.342;2024-01-15T12:37:36;3.40;;;2.20;;
4961;SDS011;2496;52.468;13.342;2024-01-15T12:40:03;6.53;;;4.50;;
4961;SDS011;2496;52.468;13.342;2024-01-15T12:42:32;1.90;;;1.60;;
4961;SDS011;2496;52.468;13.342;2024-01-15T12:44:59;5.53;;;2.43;;
4961;SDS011;2496;52.468;13.342;2024-01-15T12:47:25;3.10;;;2.53;;
4961;SDS011;2496;52.468;13.342;2024-01-15T12:49:52;2.37;;;1.63;;
4961;SDS011;2496;52.468;13.342;2024-01-15T12:52:21;1.90;;;1.63;;
4961;SDS011;2496;52.468;13.342;2024-01-15T12:54:48;3.30;;;2.03;;
4961;SDS011;2496;52.468;13.342;2024-01-15T12:57:15;2.30;;;1.70;;
4961;SDS011;2496;52.468;13.342;2024-01-15T12:59:42;3.60;;;1.90;;
4961;SDS011;2496;52.468;13.342;2024-01-15T13:02:10;6.77;;;1.77;;
4961;SDS011;2496;52.468;13.342;2024-01-15T13:04:37;2.50;;;1.80;;
4961;SDS011;2496;52.468;13.342;2024-01-15T13:07:05;4.67;;;1.80;;
4961;SDS011;2496;52.468;13.342;2024-01-15T13:09:33;4.20;;;2.17;;
4961;SDS011;2496;52.468;13.342;2024-01-15T13:12:01;4.80;;;3.00;;
4961;SDS011;2496;52.468;13.342;2024-01-15T13:14:28;5.10;;;2.90;;
4961;SDS011;2496;52.468;13.342;2024-01-15T13:16:55;4.37;;;2.70;;
4961;SDS011;2496;52.468;13.342;2024-01-15T13:19:23;5.33;;;2.20;;
4961;SDS011;2496;52.468;13.342;2024-01-15T13:21:50;3.00;;;1.93;;
4961;SDS011;2496;52.468;13.342;2024-01-15T13:24:18;6.13;;;2.80;;
4961;SDS011;2496;52.468;13.342;2024-01-15T13:26:47;6.10;;;2.63;;
4961;SDS011;2496;52.468;13.342;2024-01-15T13:29:14;2.33;;;1.90;;
4961;SDS011;2496;52.468;13.342;2024-01-15T13:31:41;6.47;;;2.60;;
4961;SDS011;2496;52.468;13.342;2024-01-15T13:34:08;2.60;;;1.90;;
4961;SDS011;2496;52.468;13.342;2024-01-15T13:36:35;7.77;;;3.60;;
4961;SDS011;2496;52.468;13.342;2024-01-15T13:39:04;3.00;;;2.10;;
4961;SDS011;2496;52.468;13.342;2024-01-15T13:41:34;7.23;;;2.03;;
4961;SDS011;2496;52.468;13.342;2024-01-15T13:44:07;4.80;;;1.90;;
4961;SDS011;2496;52.468;13.342;2024-01-15T13:46:35;5.50;;;2.73;;
4961;SDS011;2496;52.468;13.342;2024-01-15T13:49:03;3.77;;;2.83;;
4961;SDS011;2496;52.468;13.342;2024-01-15T13:51:39;5.10;;;2.50;;
4961;SDS011;2496;52.468;13.342;2024-01-15T13:54:06;3.80;;;2.43;;
4961;SDS011;2496;52.468;13.342;2024-01-15T13:56:34;4.70;;;3.00;;
4961;SDS011;2496;52.468;13.342;2024-01-15T13:59:01;8.63;;;2.43;;
4961;SDS011;2496;52.468;13.342;2024-01-15T14:01:30;5.93;;;2.90;;
4961;SDS011;2496;52.468;13.342;2024-01-15T14:03:58;6.20;;;2.93;;
4961;SDS011;2496;52.468;13.342;2024-01-15T14:06:25;8.83;;;3.10;;
4961;SDS011;2496;52.468;13.342;2024-01-15T14:08:52;15.73;;;3.10;;
4961;SDS011;2496;52.468;13.342;2024-01-15T14:11:19;11.13;;;3.53;;
4961;SDS011;2496;52.468;13.342;2024-01-15T14:13:48;10.60;;;3.70;;
4961;SDS011;2496;52.468;13.342;2024-01-15T14:16:16;6.43;;;2.90;;
4961;SDS011;2496;52.468;13.342;2024-01-15T14:18:44;9.23;;;3.17;;
4961;SDS011;2496;52.468;13.342;2024-01-15T14:21:11;7.30;;;2.40;;
4961;SDS011;2496;52.468;13.342;2024-01-15T14:23:39;11.60;;;2.70;;
4961;SDS011;2496;52.468;13.342;2024-01-15T14:26:06;11.60;;;2.47;;
4961;SDS011;2496;52.468;13.342;2024-01-15T14:28:33;9.63;;;4.90;;
4961;SDS011;2496;52.468;13.342;2024-01-15T14:31:00;10.30;;;2.97;;
4961;SDS011;2496;52.468;13.342;2024-01-15T14:33:30;14.03;;;5.00;;
4961;SDS011;2496;52.468;13.342;2024-01-15T14:35:59;7.43;;;3.07;;
4961;SDS011;2496;52.468;13.342;2024-01-15T14:38:26;5.03;;;2.70;;
4961;SDS011;2496;52.468;13.342;2024-01-15T14:40:53;11.60;;;2.53;;
4961;SDS011;2496;52.468;13.342;2024-01-15T14:43:20;5.90;;;4.20;;
4961;SDS011;2496;52.468;13.342;2024-01-15T14:45:47;15.50;;;5.47;;
4961;SDS011;2496;52.468;13.342;2024-01-15T14:48:14;10.97;;;4.67;;
4961;SDS011;2496;52.468;13.342;2024-01-15T14:50:41;6.17;;;3.10;;
4961;SDS011;2496;52.468;13.342;2024-01-15T14:53:09;5.03;;;2.40;;
4961;SDS011;2496;52.468;13.342;2024-01-15T14:55:36;7.13;;;3.23;;
4961;SDS011;2496;52.468;13.342;2024-01-15T14:58:03;3.63;;;1.93;;
4961;SDS011;2496;52.468;13.342;2024-01-15T15:00:30;5.03;;;3.63;;
4961;SDS011;2496;52.468;13.342;2024-01-15T15:02:57;5.37;;;4.33;;